Terminal Aerodrome Forecast
Issued by NWS Sterling, VA

Home | Current Version | Previous Version | Text Only | Print | Product List | Glossary On
Versions: 1 2 3 4 5 6 7 8 9 10 11 12 13 14 15 16 17 18 19 20 21 22 23 24 25 26
000
FTUS41 KLWX 240500
TAFDCA
TAF
KDCA 240538Z 2406/2506 32005KT P6SM SCT100 BKN250
     FM241400 36010KT P6SM SCT060 BKN100
     FM250300 35007KT P6SM SCT040 SCT100=

USA.gov is the U.S. government's official web portal to all federal, state and local government web resources and services.